»·PEaware :: DAL1862 KSNA-KPSP

DAL1862 :: KSNA-KPSP

FLIGHT INFORMATION

Flight Status: Arrived
Operator:
Delta Air Lines
More flights by this operator :: More flights under this callsign
Pilot: Eric G. (5941)
Aircraft: CANADAIR CL-600 CRJ-700
(CRJ7)
More flights by this aircraft type
Origin: KSNA John Wayne-Orange Co
United States
Destination: KPSP Palm Springs Intl
United States
More flights between these airports :: More routes between these airports
Route: +STREL4 TRM
File this flight plan on PilotEdge
Remarks:
Altitude:
(Current/Filed)
17,000ft
Speed:
(Current/Filed)
250kts
Departed: 16-Sep-17 01:34 PM
Arrived: 16-Sep-17 02:06 PM
Distance/Time
Traveled:
69nm/0:32
Distance/Time
To Go:
Arrived

Flight Plot

Page will automatically refresh every two minutes.

Flight plan parsing failed; only flown route is shown


Map Options




Map Legend


Flown Route
Filed Route
Departure Airport
Arrival Airport
Navaid (VOR, NDB)
Fix

Horizontal Profiles

Position Reports

Time Latitude Longitude Heading Altitude Ground
Speed
16-Sep-17 13:21 33.678446 -117.862854 116 63ft 0kts
16-Sep-17 13:22 33.678445 -117.862852 116 63ft 0kts
16-Sep-17 13:23 33.678445 -117.862850 116 63ft 0kts
16-Sep-17 13:24 33.678444 -117.862849 116 63ft 0kts
16-Sep-17 13:25 33.678443 -117.862847 116 63ft 0kts
16-Sep-17 13:26 33.678442 -117.862845 116 63ft 0kts
16-Sep-17 13:27 33.678442 -117.862843 116 63ft 0kts
16-Sep-17 13:28 33.678441 -117.862841 116 63ft 0kts
16-Sep-17 13:29 33.678440 -117.862839 116 63ft 0kts
16-Sep-17 13:30 33.678509 -117.863007 116 63ft 2kts
16-Sep-17 13:31 33.678672 -117.863026 15 63ft 0kts
16-Sep-17 13:32 33.678770 -117.862998 12 63ft 0kts
16-Sep-17 13:33 33.678772 -117.862997 12 63ft 0kts
16-Sep-17 13:34 33.678774 -117.862997 12 63ft 0kts
16-Sep-17 13:35 33.679178 -117.862975 350 63ft 10kts
16-Sep-17 13:36 33.680563 -117.863048 293 63ft 0kts
16-Sep-17 13:37 33.680825 -117.863613 300 63ft 16kts
16-Sep-17 13:38 33.676489 -117.868312 207 63ft 112kts
16-Sep-17 13:39 33.631308 -117.893845 187 1719ft 204kts
16-Sep-17 13:40 33.576341 -117.897675 183 2831ft 186kts
16-Sep-17 13:41 33.526899 -117.869990 152 5089ft 203kts
16-Sep-17 13:42 33.486695 -117.822525 118 7510ft 224kts
16-Sep-17 13:43 33.476054 -117.744768 84 10542ft 240kts
16-Sep-17 13:44 33.506116 -117.667475 59 13055ft 276kts
16-Sep-17 13:45 33.545413 -117.581901 62 12919ft 277kts
16-Sep-17 13:46 33.578974 -117.504621 73 13149ft 254kts
16-Sep-17 13:47 33.582740 -117.420934 91 12931ft 241kts
16-Sep-17 13:48 33.586680 -117.339249 92 13002ft 251kts
16-Sep-17 13:49 33.582952 -117.253805 85 13003ft 260kts
16-Sep-17 13:50 33.592969 -117.165963 84 12992ft 271kts
16-Sep-17 13:51 33.597627 -117.073334 88 12991ft 290kts
16-Sep-17 13:52 33.601196 -116.972736 88 13077ft 315kts
16-Sep-17 13:53 33.614456 -116.867992 78 12523ft 309kts
16-Sep-17 13:54 33.624101 -116.777324 85 11581ft 281kts
16-Sep-17 13:55 33.632003 -116.689158 80 11035ft 247kts
16-Sep-17 13:56 33.645339 -116.601603 80 11023ft 284kts
16-Sep-17 13:57 33.666656 -116.508833 51 10787ft 299kts
16-Sep-17 13:58 33.723223 -116.435621 48 9227ft 290kts
16-Sep-17 13:59 33.771698 -116.368432 49 7221ft 245kts
16-Sep-17 14:00 33.796244 -116.302229 82 6363ft 215kts
16-Sep-17 14:01 33.781722 -116.230106 123 5976ft 237kts
16-Sep-17 14:02 33.722645 -116.192931 181 5187ft 237kts
16-Sep-17 14:03 33.676068 -116.232965 230 4359ft 205kts
16-Sep-17 14:04 33.654413 -116.293417 276 4003ft 204kts
16-Sep-17 14:05 33.677357 -116.363880 318 3840ft 246kts
16-Sep-17 14:06 33.723099 -116.409801 318 3204ft 189kts
16-Sep-17 14:07 33.765829 -116.450674 323 1681ft 187kts
16-Sep-17 14:08 33.803324 -116.484475 325 1038ft 151kts
16-Sep-17 14:09 33.830629 -116.508571 322 484ft 47kts
16-Sep-17 14:10 33.832038 -116.511855 156 484ft 17kts
16-Sep-17 14:11 33.826700 -116.507095 158 484ft 29kts
16-Sep-17 14:12 33.823872 -116.506513 187 484ft 0kts

Navigation Log

Ident Type
Flight plan parsing failed, navigation log unavailable